Marvin, North Carolina
Current Conditions -  °F | °C
As of 4:53 PM on Tuesday 25 Nov 2014 (Local Time) from KEQY Reporting Station
Overcast Overcast  
Wind Chill: 58°   Ceiling: 9000
Heat Index: 58°   Visibility: 10mi
Dew Point: 40°   Wind: 3mph
Humidity: 51%   Direction: 70°ENE
Pressure: 30.02"   Gusts: NA
Location:  34.9191°N, 80.7283°W
Report Text: KEQY 252153Z AUTO 07003KT 10SM FEW065 BKN090 OVC110 14/04 A3002 RMK AO2 SLP173 T01440044
Loading
Personal Weather Stations






























Interactive Weather Map New forecast layout! Learn more

10-Day Weather Forecast

Advertisements
Track Severe Weather on mobile